Pagrindinis puslapis
METAR-TAF:

METAR-TAF

Oro uostai :

Kota Kinabalu, Malaizija

platuma: 05-56N, ilguma: 116-03E, Aukštis: 3 m

Dabartinis oras

Ataskaita buvo paskelbta 20 minutes, ne 00:30 UTC
Vėjas 3 kt iš Rytų/Pietryčių, svyruoja nuo Rytų ir Pietų/Pietryčių
Temperatūra 26°C
Drėgmė 84%
Slėgis 1008 hPa
Matomumas 10 km arba daugiau
Mažai debesys ne aukštis 1400 ft

METAR: WBKK 260030Z 12003KT 090V150 9999 FEW014 26/23 Q1008 NOSIG

Laikas: 08:50 (00:50 UTC)

Prognozė

Ataskaita buvo paskelbta 1 valandą ir 50 minutes, ne 23:00 UTC
Prognozė galioja nuo 26 metu 00 UTC su 27 metu 00 UTC
Vėjas 5 kt iš Vakarų
Matomumas 10 km arba daugiau
Mažai debesys ne aukštis 1500 ft
Laikinai
nuo 26 metu 08 UTC su 26 metu 12 UTC
Matomumas: 5000 m
Mažai debesys ne aukštis 1300 ft
Mažai debesys ne aukštis 1600 ft, Liūtiniai kamuoliniai debesys.
Išsisklaidę debesys ne aukštis 3500 ft
perkūnija, lietus

TAF: WBKK 252300Z 2600/2700 27005KT 9999 FEW015 TEMPO 2608/2612 5000 TSRA FEW013 FEW016CB SCT035

Orai ataskaitas ir orų prognozės (METAR, TAF).

turimą stotys yra geltonos ir raudonos taškus žemėlapyje.

Perkelti pele per norėdami pamatyti stoties vardą.

Tada spustelėkite, norėdami matyti oro stebėjimo ir prognozės.

Norėdami pakeisti žemėlapį: spustelėkite ant žalios mygtukų su juodo kryžiaus žemyn,; žalią mygtuką su brūkšneliu, jei norite nutolinti; arba žalių rodyklių gretimoms žemėlapius.


METAR-TAF: